sensor_id;sensor_type;location;lat;lon;timestamp;pressure;altitude;pressure_sealevel;temperature;humidity
29163;BME280;20331;53.144;8.208;2023-03-26T00:05:27;100565.25;;;8.55;93.71
29163;BME280;20331;53.144;8.208;2023-03-26T00:15:49;100560.28;;;8.47;94.35
29163;BME280;20331;53.144;8.208;2023-03-26T00:26:11;100575.97;;;8.40;95.01
29163;BME280;20331;53.144;8.208;2023-03-26T00:36:33;100588.00;;;8.39;94.24
29163;BME280;20331;53.144;8.208;2023-03-26T00:46:56;100596.56;;;8.40;94.47
29163;BME280;20331;53.144;8.208;2023-03-26T00:57:18;100592.03;;;8.49;94.31
29163;BME280;20331;53.144;8.208;2023-03-26T01:07:55;100595.50;;;8.48;93.98
29163;BME280;20331;53.144;8.208;2023-03-26T01:18:20;100596.19;;;8.55;92.58
29163;BME280;20331;53.144;8.208;2023-03-26T01:28:42;100600.41;;;8.57;91.25
29163;BME280;20331;53.144;8.208;2023-03-26T01:39:14;100600.50;;;8.54;90.69
29163;BME280;20331;53.144;8.208;2023-03-26T01:49:38;100604.97;;;8.48;90.52
29163;BME280;20331;53.144;8.208;2023-03-26T02:10:39;100592.03;;;8.49;89.44
29163;BME280;20331;53.144;8.208;2023-03-26T02:31:25;100586.94;;;8.46;90.57
29163;BME280;20331;53.144;8.208;2023-03-26T02:41:47;100579.25;;;8.45;88.04
29163;BME280;20331;53.144;8.208;2023-03-26T02:52:09;100575.09;;;8.39;88.16
29163;BME280;20331;53.144;8.208;2023-03-26T03:02:31;100563.34;;;8.29;87.18
29163;BME280;20331;53.144;8.208;2023-03-26T03:12:53;100564.53;;;8.13;86.95
29163;BME280;20331;53.144;8.208;2023-03-26T03:23:14;100576.66;;;8.09;86.56
29163;BME280;20331;53.144;8.208;2023-03-26T03:33:36;100580.28;;;8.02;85.76
29163;BME280;20331;53.144;8.208;2023-03-26T03:43:57;100574.38;;;7.97;85.26
29163;BME280;20331;53.144;8.208;2023-03-26T03:54:21;100570.22;;;7.92;83.75
29163;BME280;20331;53.144;8.208;2023-03-26T04:04:43;100571.25;;;7.85;82.44
29163;BME280;20331;53.144;8.208;2023-03-26T04:15:06;100571.34;;;7.82;83.88
29163;BME280;20331;53.144;8.208;2023-03-26T04:25:28;100560.22;;;7.78;84.55
29163;BME280;20331;53.144;8.208;2023-03-26T04:35:50;100555.13;;;7.77;83.69
29163;BME280;20331;53.144;8.208;2023-03-26T04:46:12;100556.16;;;7.70;84.61
29163;BME280;20331;53.144;8.208;2023-03-26T05:07:16;100551.78;;;7.73;85.48
29163;BME280;20331;53.144;8.208;2023-03-26T05:17:37;100549.16;;;7.75;84.85
29163;BME280;20331;53.144;8.208;2023-03-26T05:28:02;100556.06;;;7.73;85.15
29163;BME280;20331;53.144;8.208;2023-03-26T05:38:24;100557.91;;;7.68;83.65
29163;BME280;20331;53.144;8.208;2023-03-26T05:48:45;100560.34;;;7.74;84.47
29163;BME280;20331;53.144;8.208;2023-03-26T05:59:07;100567.13;;;7.78;85.08
29163;BME280;20331;53.144;8.208;2023-03-26T06:09:29;100563.00;;;7.71;85.72
29163;BME280;20331;53.144;8.208;2023-03-26T06:19:50;100557.69;;;7.77;85.69
29163;BME280;20331;53.144;8.208;2023-03-26T06:30:12;100552.41;;;7.83;86.31
29163;BME280;20331;53.144;8.208;2023-03-26T06:40:33;100565.50;;;7.74;81.05
29163;BME280;20331;53.144;8.208;2023-03-26T06:50:55;100567.19;;;7.76;81.99
29163;BME280;20331;53.144;8.208;2023-03-26T07:01:17;100571.31;;;7.83;84.45
29163;BME280;20331;53.144;8.208;2023-03-26T07:11:38;100575.75;;;7.75;81.86
29163;BME280;20331;53.144;8.208;2023-03-26T07:22:00;100561.81;;;7.84;81.62
29163;BME280;20331;53.144;8.208;2023-03-26T07:32:24;100564.56;;;7.78;80.21
29163;BME280;20331;53.144;8.208;2023-03-26T07:53:29;100559.41;;;7.78;79.70
29163;BME280;20331;53.144;8.208;2023-03-26T08:36:17;100557.75;;;8.10;77.62
29163;BME280;20331;53.144;8.208;2023-03-26T09:40:18;100553.75;;;8.66;72.50
29163;BME280;20331;53.144;8.208;2023-03-26T09:51:45;100563.75;;;8.78;74.62
29163;BME280;20331;53.144;8.208;2023-03-26T10:01:45;100569.06;;;9.04;72.47
29163;BME280;20331;53.144;8.208;2023-03-26T10:12:21;100577.22;;;8.89;74.43
29163;BME280;20331;53.144;8.208;2023-03-26T10:33:53;100563.97;;;9.01;71.51
29163;BME280;20331;53.144;8.208;2023-03-26T10:55:32;100578.22;;;9.14;69.77
29163;BME280;20331;53.144;8.208;2023-03-26T11:06:30;100582.16;;;9.28;69.09
29163;BME280;20331;53.144;8.208;2023-03-26T11:17:06;100582.41;;;9.48;69.51
29163;BME280;20331;53.144;8.208;2023-03-26T11:38:48;100575.09;;;9.62;70.25
29163;BME280;20331;53.144;8.208;2023-03-26T11:49:15;100573.72;;;9.78;71.62
29163;BME280;20331;53.144;8.208;2023-03-26T11:59:51;100579.31;;;9.64;68.00
29163;BME280;20331;53.144;8.208;2023-03-26T12:20:44;100575.03;;;9.91;70.13
29163;BME280;20331;53.144;8.208;2023-03-26T12:31:11;100575.81;;;9.67;63.69
29163;BME280;20331;53.144;8.208;2023-03-26T12:41:39;100576.06;;;9.85;69.48
29163;BME280;20331;53.144;8.208;2023-03-26T13:14:05;100580.59;;;9.79;66.00
29163;BME280;20331;53.144;8.208;2023-03-26T13:35:02;100591.88;;;9.47;67.98
29163;BME280;20331;53.144;8.208;2023-03-26T13:56:34;100599.78;;;9.72;65.06
29163;BME280;20331;53.144;8.208;2023-03-26T14:28:47;100614.31;;;9.45;67.00
29163;BME280;20331;53.144;8.208;2023-03-26T15:34:02;100666.31;;;10.48;56.04
29163;BME280;20331;53.144;8.208;2023-03-26T15:44:40;100679.44;;;10.68;63.67
29163;BME280;20331;53.144;8.208;2023-03-26T16:06:06;100712.69;;;10.27;61.96
29163;BME280;20331;53.144;8.208;2023-03-26T16:16:51;100705.50;;;10.36;57.67
29163;BME280;20331;53.144;8.208;2023-03-26T16:37:36;100746.69;;;9.84;64.97
29163;BME280;20331;53.144;8.208;2023-03-26T16:48:09;100756.41;;;9.76;60.62
29163;BME280;20331;53.144;8.208;2023-03-26T17:09:06;100790.53;;;8.51;65.30
29163;BME280;20331;53.144;8.208;2023-03-26T17:19:34;100803.09;;;8.28;66.68
29163;BME280;20331;53.144;8.208;2023-03-26T17:41:03;100836.56;;;7.85;67.48
29163;BME280;20331;53.144;8.208;2023-03-26T18:01:44;100859.44;;;7.53;66.29
29163;BME280;20331;53.144;8.208;2023-03-26T18:22:32;100895.97;;;7.24;67.44
29163;BME280;20331;53.144;8.208;2023-03-26T18:33:01;100919.31;;;7.10;68.22
29163;BME280;20331;53.144;8.208;2023-03-26T18:43:22;100925.44;;;7.03;68.47
29163;BME280;20331;53.144;8.208;2023-03-26T18:53:56;100945.34;;;6.91;67.63
29163;BME280;20331;53.144;8.208;2023-03-26T19:04:18;100948.06;;;6.80;68.86
29163;BME280;20331;53.144;8.208;2023-03-26T19:14:50;100958.50;;;6.68;67.87
29163;BME280;20331;53.144;8.208;2023-03-26T19:25:20;100965.47;;;6.59;68.71
29163;BME280;20331;53.144;8.208;2023-03-26T19:35:43;100973.28;;;6.50;70.07
29163;BME280;20331;53.144;8.208;2023-03-26T19:46:06;100973.41;;;6.38;68.95
29163;BME280;20331;53.144;8.208;2023-03-26T19:56:33;100987.16;;;6.35;69.66
29163;BME280;20331;53.144;8.208;2023-03-26T20:06:54;101009.50;;;6.27;67.88
29163;BME280;20331;53.144;8.208;2023-03-26T20:17:17;101017.28;;;6.18;68.80
29163;BME280;20331;53.144;8.208;2023-03-26T20:27:39;101025.06;;;6.10;69.94
29163;BME280;20331;53.144;8.208;2023-03-26T20:38:00;101041.38;;;6.03;70.28
29163;BME280;20331;53.144;8.208;2023-03-26T20:48:22;101062.88;;;5.92;68.94
29163;BME280;20331;53.144;8.208;2023-03-26T20:58:47;101079.13;;;5.94;69.75
29163;BME280;20331;53.144;8.208;2023-03-26T21:09:31;101083.47;;;5.84;69.35
29163;BME280;20331;53.144;8.208;2023-03-26T21:19:54;101098.09;;;5.69;68.46
29163;BME280;20331;53.144;8.208;2023-03-26T21:30:15;101121.16;;;5.72;71.04
29163;BME280;20331;53.144;8.208;2023-03-26T21:40:38;101127.19;;;5.66;69.45
29163;BME280;20331;53.144;8.208;2023-03-26T21:51:09;101148.63;;;5.64;68.58
29163;BME280;20331;53.144;8.208;2023-03-26T22:02:04;101157.16;;;5.57;70.66
29163;BME280;20331;53.144;8.208;2023-03-26T22:12:18;101172.59;;;5.54;70.60
29163;BME280;20331;53.144;8.208;2023-03-26T22:22:40;101189.72;;;5.52;71.55
29163;BME280;20331;53.144;8.208;2023-03-26T22:33:08;101202.56;;;5.46;71.31
29163;BME280;20331;53.144;8.208;2023-03-26T22:43:32;101215.44;;;5.34;71.48
29163;BME280;20331;53.144;8.208;2023-03-26T22:53:53;101232.53;;;5.33;71.70
29163;BME280;20331;53.144;8.208;2023-03-26T23:04:15;101249.66;;;5.27;73.27
29163;BME280;20331;53.144;8.208;2023-03-26T23:14:52;101261.63;;;5.17;73.00
29163;BME280;20331;53.144;8.208;2023-03-26T23:25:13;101277.91;;;5.08;73.79
29163;BME280;20331;53.144;8.208;2023-03-26T23:35:35;101280.44;;;4.96;71.06
29163;BME280;20331;53.144;8.208;2023-03-26T23:45:57;101292.41;;;4.91;73.76
29163;BME280;20331;53.144;8.208;2023-03-26T23:56:19;101312.09;;;4.83;73.23
